.
WxDataArchive / Data Records for 2009-05-13
2009-05-12 May 2009 2009-05-14

Data Records for Wednesday, 13 May 2009

Time	Temp	Chill	HIndex	Humid	Dewpt	 Wind 	HiWind	WindDir	Rain 	Barom 
-----	----	-----	------	-----	-----	------	------	-------	-----	----- 
00:00	53.3	53.3	53.3	54	37.1	0	2	90	0.00	30.119 
00:05	53.2	53.2	53.2	56	37.9	0	2	90	0.00	30.119 
00:10	53.2	53.2	53.2	56	37.9	1	2	90	0.00	30.119 
00:15	53.1	53.1	53.1	56	37.8	0	3	90	0.00	30.115 
00:20	52.8	52.8	52.8	57	38.0	1	4	112	0.00	30.115 
00:25	52.6	52.6	52.6	57	37.8	1	2	45	0.00	30.115 
00:30	52.5	52.5	52.5	58	38.2	1	5	90	0.00	30.113 
00:35	52.3	52.3	52.3	58	38.0	0	2	90	0.00	30.113 
00:40	52.0	52.0	52.0	58	37.7	1	3	90	0.00	30.113 
00:45	51.9	51.9	51.9	59	38.0	0	2	90	0.00	30.104 
00:50	51.7	51.7	51.7	59	37.8	0	1	90	0.00	30.104 
00:55	51.4	51.4	51.4	60	38.0	0	1	90	0.00	30.104 
01:00	51.1	51.1	51.1	60	37.7	0	1	90	0.00	30.101 
01:05	51.0	51.0	51.0	61	38.0	0	1	90	0.00	30.101 
01:10	50.7	50.7	50.7	62	38.2	0	0	---	0.00	30.101 
01:15	50.5	50.5	50.5	62	38.0	0	1	90	0.00	30.095 
01:20	50.5	50.5	50.5	62	38.0	0	1	90	0.00	30.095 
01:25	50.5	50.5	50.5	63	38.4	0	1	90	0.00	30.095 
01:30	50.5	50.5	50.5	63	38.4	0	1	90	0.00	30.088 
01:35	50.4	50.4	50.4	64	38.7	0	1	90	0.00	30.088 
01:40	50.4	50.4	50.4	64	38.7	0	1	90	0.00	30.088 
01:45	50.4	50.4	50.4	64	38.7	0	2	90	0.00	30.089 
01:50	50.5	50.5	50.5	65	39.2	1	3	90	0.00	30.089 
01:55	50.7	50.7	50.7	65	39.4	0	3	90	0.00	30.089 
02:00	50.7	50.7	50.7	65	39.4	0	2	90	0.00	30.084 
02:05	50.7	50.7	50.7	65	39.4	1	2	90	0.00	30.084 
02:10	50.7	50.7	50.7	65	39.4	1	3	90	0.00	30.084 
02:15	50.8	50.8	50.8	65	39.5	1	3	90	0.00	30.077 
02:20	50.8	50.8	50.8	65	39.5	0	2	90	0.00	30.077 
02:25	50.8	50.8	50.8	66	39.9	0	3	90	0.00	30.077 
02:30	50.8	50.8	50.8	66	39.9	0	1	90	0.00	30.073 
02:35	50.8	50.8	50.8	66	39.9	1	2	90	0.00	30.073 
02:40	50.8	50.8	50.8	66	39.9	1	3	90	0.00	30.073 
02:45	50.8	50.8	50.8	66	39.9	1	2	90	0.00	30.064 
02:50	50.7	50.7	50.7	67	40.1	0	1	90	0.00	30.064 
02:55	50.7	50.7	50.7	66	39.8	1	2	90	0.00	30.064 
03:00	50.8	50.8	50.8	66	39.9	0	2	90	0.00	30.063 
03:05	50.8	50.8	50.8	66	39.9	0	1	90	0.00	30.063 
03:10	50.7	50.7	50.7	66	39.8	0	1	90	0.00	30.063 
03:15	50.7	50.7	50.7	66	39.8	0	1	90	0.00	30.066 
03:20	50.7	50.7	50.7	66	39.8	0	1	90	0.00	30.066 
03:25	50.7	50.7	50.7	66	39.8	0	1	90	0.00	30.066 
03:30	50.7	50.7	50.7	67	40.1	0	0	---	0.00	30.071 
03:35	50.7	50.7	50.7	67	40.1	0	0	---	0.00	30.071 
03:40	50.5	50.5	50.5	67	40.0	0	1	90	0.00	30.071 
03:45	50.5	50.5	50.5	67	40.0	0	0	---	0.00	30.070 
03:50	50.5	50.5	50.5	67	40.0	0	1	90	0.00	30.070 
03:55	50.5	50.5	50.5	67	40.0	0	1	90	0.00	30.070 
04:00	50.7	50.7	50.7	67	40.1	0	1	90	0.00	30.059 
04:05	50.7	50.7	50.7	67	40.1	0	0	---	0.00	30.059 
04:10	50.7	50.7	50.7	66	39.8	0	1	90	0.00	30.059 
04:15	50.8	50.8	50.8	66	39.9	0	1	90	0.00	30.057 
04:20	51.0	51.0	51.0	66	40.0	0	1	90	0.00	30.057 
04:25	51.1	51.1	51.1	66	40.1	0	0	---	0.00	30.057 
04:30	51.1	51.1	51.1	67	40.5	0	0	---	0.00	30.059 
04:35	51.1	51.1	51.1	67	40.5	0	0	---	0.00	30.059 
04:40	51.1	51.1	51.1	67	40.5	0	0	---	0.00	30.059 
04:45	51.1	51.1	51.1	66	40.1	0	1	90	0.00	30.066 
04:50	51.1	51.1	51.1	66	40.1	0	1	90	0.00	30.066 
04:55	51.3	51.3	51.3	66	40.3	0	1	90	0.00	30.066 
05:00	51.3	51.3	51.3	66	40.3	0	1	90	0.00	30.063 
05:05	51.3	51.3	51.3	65	39.9	0	0	---	0.00	30.063 
05:10	51.4	51.4	51.4	65	40.0	0	1	90	0.00	30.063 
05:15	51.6	51.6	51.6	65	40.2	0	1	90	0.00	30.066 
05:20	51.7	51.7	51.7	65	40.3	0	0	---	0.00	30.066 
05:25	51.9	51.9	51.9	65	40.5	0	1	90	0.00	30.066 
05:30	51.9	51.9	51.9	64	40.1	0	1	90	0.00	30.061 
05:35	52.0	52.0	52.0	63	39.8	0	1	90	0.00	30.061 
05:40	52.3	52.3	52.3	63	40.1	0	1	90	0.00	30.061 
05:45	52.5	52.5	52.5	63	40.3	0	1	90	0.00	30.061 
05:50	52.5	52.5	52.5	63	40.3	0	1	90	0.00	30.061 
05:55	52.6	52.6	52.6	63	40.4	0	1	90	0.00	30.061 
06:00	52.6	52.6	52.6	63	40.4	0	1	90	0.00	30.060 
06:05	52.6	52.6	52.6	64	40.8	0	1	90	0.00	30.060 
06:10	52.6	52.6	52.6	64	40.8	0	1	90	0.00	30.060 
06:15	52.6	52.6	52.6	64	40.8	0	1	90	0.00	30.058 
06:20	52.6	52.6	52.6	64	40.8	0	1	90	0.00	30.058 
06:25	52.6	52.6	52.6	64	40.8	0	1	90	0.00	30.058 
06:30	52.6	52.6	52.6	64	40.8	0	1	90	0.00	30.058 
06:35	52.8	52.8	52.8	64	41.0	0	1	90	0.00	30.058 
06:40	52.8	52.8	52.8	64	41.0	0	2	90	0.00	30.058 
06:45	52.8	52.8	52.8	64	41.0	0	1	90	0.00	30.058 
06:50	52.8	52.8	52.8	65	41.4	0	0	---	0.00	30.058 
06:55	52.6	52.6	52.6	66	41.6	0	0	---	0.00	30.058 
07:00	52.6	52.6	52.6	68	42.3	0	1	90	0.00	30.084 
07:05	52.5	52.5	52.5	68	42.2	0	1	90	0.00	30.084 
07:10	52.6	52.6	52.6	67	42.0	1	4	270	0.00	30.084 
07:15	52.8	52.8	52.8	68	42.5	1	4	270	0.00	30.094 
07:20	52.6	52.6	52.6	70	43.1	1	3	270	0.00	30.094 
07:25	52.5	52.5	52.5	73	44.1	1	3	270	0.01	30.094 
07:30	52.3	52.3	52.3	76	45.0	0	2	270	0.00	30.089 
07:35	52.0	52.0	52.0	77	45.0	0	3	112	0.00	30.089 
07:40	51.9	51.9	51.9	78	45.3	0	2	112	0.00	30.089 
07:45	51.7	51.7	51.7	78	45.1	0	2	112	0.01	30.084 
07:50	51.6	51.6	51.6	79	45.3	0	1	135	0.00	30.084 
07:55	51.4	51.4	51.4	80	45.4	0	2	90	0.00	30.084 
08:00	51.6	51.6	51.6	81	46.0	0	1	90	0.00	30.075 
08:05	51.6	51.6	51.6	81	46.0	0	1	90	0.00	30.075 
08:10	51.6	51.6	51.6	81	46.0	0	2	90	0.00	30.075 
08:15	51.7	51.7	51.7	81	46.1	1	2	90	0.00	30.063 
08:20	51.7	51.7	51.7	81	46.1	1	2	90	0.00	30.063 
08:25	51.9	51.9	51.9	81	46.3	1	3	90	0.00	30.063 
08:30	52.0	52.0	52.0	81	46.4	1	2	90	0.00	30.058 
08:35	52.0	52.0	52.0	80	46.0	1	2	112	0.00	30.058 
08:40	52.2	52.2	52.2	79	45.9	1	2	112	0.00	30.058 
08:45	52.2	52.2	52.2	79	45.9	1	3	112	0.00	30.048 
08:50	52.3	52.3	52.3	78	45.6	1	3	112	0.00	30.048 
08:55	52.6	52.6	52.6	77	45.6	1	4	90	0.00	30.048 
09:00	52.8	52.8	52.8	75	45.1	2	4	90	0.00	30.029 
09:05	52.9	52.9	52.9	74	44.8	2	4	90	0.00	30.029 
09:10	53.2	53.2	53.2	73	44.8	2	5	90	0.00	30.029 
09:15	53.5	53.5	53.5	74	45.4	1	6	292	0.00	30.019 
09:20	53.8	53.8	53.8	73	45.3	1	6	90	0.00	30.019 
09:25	53.9	53.9	53.9	73	45.4	2	6	90	0.00	30.019 
09:30	54.1	54.1	54.1	72	45.3	2	4	112	0.00	30.015 
09:35	54.2	54.2	54.2	72	45.4	2	6	112	0.00	30.015 
09:40	54.4	54.4	54.4	72	45.6	1	4	90	0.00	30.015 
09:45	54.7	54.7	54.7	71	45.5	2	5	135	0.00	30.013 
09:50	55.0	55.0	55.0	71	45.8	2	4	90	0.00	30.013 
09:55	55.3	55.3	55.3	70	45.7	2	4	112	0.00	30.013 
10:00	55.6	55.6	55.6	70	46.0	2	6	112	0.00	29.998 
10:05	56.0	56.0	56.0	70	46.4	1	3	112	0.00	29.998 
10:10	56.3	56.3	56.3	69	46.3	1	4	112	0.00	29.998 
10:15	56.3	56.3	56.3	68	45.9	2	4	90	0.00	30.009 
10:20	56.3	56.3	56.3	68	45.9	1	4	112	0.00	30.009 
10:25	56.3	56.3	56.3	68	45.9	1	4	112	0.00	30.009 
10:30	56.5	56.5	56.5	68	46.1	1	4	68	0.00	30.015 
10:35	56.6	56.6	56.6	68	46.2	1	4	90	0.00	30.015 
10:40	56.6	56.6	56.6	68	46.2	1	4	112	0.00	30.015 
10:45	56.7	56.7	56.7	69	46.6	1	5	90	0.00	30.013 
10:50	56.6	56.6	56.6	70	46.9	1	4	90	0.00	30.013 
10:55	56.6	56.6	56.6	71	47.3	1	3	90	0.00	30.013 
11:00	56.5	56.5	56.5	73	47.9	1	3	90	0.00	29.997 
11:05	56.3	56.3	56.3	74	48.1	1	5	90	0.00	29.997 
11:10	56.0	56.0	56.0	77	48.9	1	3	90	0.01	29.997 
11:15	55.9	55.9	55.9	79	49.5	1	3	90	0.00	29.986 
11:20	55.7	55.7	55.7	80	49.6	1	4	112	0.00	29.986 
11:25	55.6	55.6	55.6	81	49.9	1	3	90	0.00	29.986 
11:30	55.7	55.7	55.7	81	50.0	1	3	90	0.00	29.984 
11:35	56.0	56.0	56.0	82	50.6	1	4	90	0.01	29.984 
11:40	56.3	56.3	56.3	82	50.9	2	4	90	0.00	29.984 
11:45	56.5	56.5	56.5	82	51.1	1	3	112	0.00	29.976 
11:50	56.6	56.6	56.6	83	51.5	1	3	90	0.00	29.976 
11:55	56.7	56.7	56.7	83	51.6	1	4	112	0.00	29.976 
12:00	57.0	57.0	57.0	84	52.2	1	4	90	0.01	29.980 
12:05	57.2	57.2	57.2	84	52.4	2	5	90	0.00	29.980 
12:10	57.3	57.3	57.3	84	52.5	1	4	90	0.00	29.980 
12:15	57.5	57.5	57.5	85	53.0	1	3	112	0.00	29.977 
12:20	57.6	57.6	57.6	85	53.1	2	9	112	0.01	29.977 
12:25	57.6	57.6	57.6	86	53.4	1	4	135	0.00	29.977 
12:30	57.8	57.8	57.8	86	53.6	2	6	90	0.00	29.972 
12:35	57.8	57.8	57.8	86	53.6	2	5	68	0.00	29.972 
12:40	58.0	58.0	58.0	86	53.8	2	5	90	0.01	29.972 
12:45	58.0	58.0	58.0	87	54.1	1	5	68	0.00	29.965 
12:50	58.0	58.0	58.0	87	54.1	2	4	90	0.00	29.965 
12:55	57.8	57.8	57.8	87	54.0	2	6	90	0.00	29.965 
13:00	57.8	57.8	57.8	88	54.3	2	4	90	0.01	29.952 
13:05	58.0	58.0	58.0	88	54.5	2	6	112	0.00	29.952 
13:10	58.0	58.0	58.0	89	54.8	1	6	68	0.01	29.952 
13:15	58.0	58.0	58.0	89	54.8	2	6	112	0.00	29.947 
13:20	58.0	58.0	58.0	89	54.8	3	6	90	0.00	29.947 
13:25	58.1	58.1	58.1	90	55.2	3	9	90	0.01	29.947 
13:30	58.3	58.3	58.3	90	55.4	2	5	90	0.00	29.937 
13:35	58.6	58.6	58.6	90	55.7	2	6	90	0.00	29.937 
13:40	58.7	58.7	58.7	90	55.8	3	10	90	0.00	29.937 
13:45	59.0	59.0	59.0	90	56.1	3	7	90	0.00	29.932 
13:50	59.2	59.2	59.2	91	56.6	3	6	90	0.00	29.932 
13:55	59.3	59.3	59.3	91	56.7	3	9	112	0.00	29.932 
14:00	59.5	59.5	59.5	91	56.9	3	10	90	0.01	29.931 
14:05	59.6	59.6	59.6	91	57.0	2	6	45	0.00	29.931 
14:10	59.8	59.8	59.8	91	57.2	3	6	90	0.00	29.931 
14:15	59.9	59.9	59.9	92	57.6	2	6	90	0.00	29.924 
14:20	59.9	59.9	59.9	92	57.6	3	11	90	0.00	29.924 
14:25	60.1	60.1	60.1	92	57.8	2	7	112	0.01	29.924 
14:30	60.2	60.2	60.2	92	57.9	3	10	90	0.00	29.922 
14:35	60.4	60.4	60.4	92	58.1	2	6	90	0.00	29.922 
14:40	60.4	60.4	60.4	91	57.8	3	11	90	0.00	29.922 
14:45	60.5	60.5	60.5	91	57.9	2	6	90	0.00	29.925 
14:50	60.5	60.5	60.5	91	57.9	2	6	90	0.01	29.925 
14:55	60.4	60.4	60.4	91	57.8	2	4	112	0.00	29.925 
15:00	60.5	60.5	60.5	91	57.9	1	4	338	0.01	29.933 
15:05	60.4	60.4	60.4	92	58.1	1	4	315	0.01	29.933 
15:10	60.2	60.2	60.2	92	57.9	2	7	270	0.01	29.933 
15:15	60.2	60.2	60.2	92	57.9	1	3	248	0.01	29.934 
15:20	60.2	60.2	60.2	92	57.9	1	9	112	0.01	29.934 
15:25	60.2	60.2	60.2	93	58.2	1	4	270	0.00	29.934 
15:30	60.2	60.2	60.2	93	58.2	1	4	270	0.01	29.932 
15:35	60.2	60.2	60.2	93	58.2	1	5	248	0.00	29.932 
15:40	60.2	60.2	60.2	93	58.2	2	8	248	0.01	29.932 
15:45	60.2	60.2	60.2	93	58.2	2	6	248	0.00	29.929 
15:50	60.4	60.4	60.4	94	58.7	1	4	270	0.00	29.929 
15:55	60.4	60.4	60.4	94	58.7	2	5	270	0.00	29.929 
16:00	60.4	60.4	60.4	94	58.7	2	5	248	0.01	29.933 
16:05	60.2	60.2	60.2	94	58.5	3	7	270	0.02	29.933 
16:10	60.4	60.4	60.4	94	58.7	2	5	68	0.01	29.933 
16:15	60.4	60.4	60.4	94	58.7	1	5	292	0.00	29.919 
16:20	60.4	60.4	60.4	94	58.7	1	3	68	0.02	29.919 
16:25	60.4	60.4	60.4	94	58.7	2	4	90	0.00	29.919 
16:30	60.4	60.4	60.4	94	58.7	2	6	45	0.00	29.907 
16:35	60.5	60.5	60.5	94	58.8	2	6	90	0.00	29.907 
16:40	60.5	60.5	60.5	94	58.8	2	6	90	0.00	29.907 
16:45	60.7	60.7	60.7	94	59.0	2	9	90	0.00	29.895 
16:50	60.7	60.7	60.7	94	59.0	3	7	90	0.00	29.895 
16:55	60.9	60.9	60.9	94	59.2	2	6	112	0.00	29.895 
17:00	60.9	60.9	60.9	94	59.2	2	5	112	0.00	29.867 
17:05	61.0	61.0	61.0	94	59.3	2	5	90	0.00	29.867 
17:10	61.0	61.0	61.0	94	59.3	2	5	90	0.00	29.867 
17:15	61.2	61.2	61.2	94	59.5	1	4	90	0.00	29.869 
17:20	61.2	61.2	61.2	94	59.5	2	5	90	0.00	29.869 
17:25	61.3	61.3	61.3	94	59.6	2	5	68	0.00	29.869 
17:30	61.3	61.3	61.3	94	59.6	3	8	112	0.00	29.848 
17:35	61.5	61.5	61.5	93	59.5	3	11	90	0.00	29.848 
17:40	61.5	61.5	61.5	93	59.5	3	9	90	0.00	29.848 
17:45	61.6	61.6	61.6	93	59.6	2	6	90	0.00	29.849 
17:50	61.6	61.6	61.6	93	59.6	4	11	90	0.00	29.849 
17:55	61.6	61.6	61.6	92	59.2	3	8	90	0.00	29.849 
18:00	61.8	61.8	61.8	92	59.4	2	7	90	0.00	29.835 
18:05	62.0	62.0	62.0	92	59.6	2	7	112	0.00	29.835 
18:10	62.0	62.0	62.0	92	59.6	2	11	90	0.00	29.835 
18:15	62.1	62.1	62.1	92	59.7	2	5	112	0.00	29.826 
18:20	62.1	62.1	62.1	91	59.4	2	6	112	0.00	29.826 
18:25	62.1	62.1	62.1	91	59.4	4	10	90	0.00	29.826 
18:30	62.3	62.3	62.3	91	59.6	3	9	90	0.00	29.796 
18:35	62.3	62.3	62.3	91	59.6	3	9	112	0.00	29.796 
18:40	62.4	62.4	62.4	90	59.4	3	10	90	0.00	29.796 
18:45	62.6	62.6	62.6	90	59.6	3	9	112	0.00	29.783 
18:50	62.7	62.7	62.7	90	59.7	3	9	112	0.00	29.783 
18:55	63.1	63.1	63.1	89	59.8	3	16	90	0.00	29.783 
19:00	63.4	63.4	63.4	89	60.1	3	7	135	0.00	29.776 
19:05	63.7	63.7	63.7	88	60.1	3	8	90	0.00	29.776 
19:10	64.0	64.0	64.0	87	60.0	3	7	90	0.00	29.776 
19:15	64.3	64.3	64.3	86	60.0	3	14	90	0.00	29.784 
19:20	64.7	64.7	64.7	85	60.1	3	10	90	0.00	29.784 
19:25	64.8	64.8	64.8	84	59.8	3	11	292	0.00	29.784 
19:30	65.0	65.0	65.0	83	59.7	3	13	45	0.00	29.800 
19:35	65.0	65.0	65.0	83	59.7	2	7	45	0.00	29.800 
19:40	65.0	65.0	65.0	83	59.7	3	10	292	0.00	29.800 
19:45	64.8	64.8	64.8	83	59.5	2	5	248	0.00	29.804 
19:50	64.7	64.7	64.7	84	59.7	2	7	315	0.00	29.804 
19:55	64.7	64.7	64.7	84	59.7	2	6	270	0.00	29.804 
20:00	64.5	64.5	64.5	84	59.6	2	7	248	0.00	29.818 
20:05	64.3	64.3	64.3	84	59.4	2	6	292	0.00	29.818 
20:10	64.3	64.3	64.3	84	59.4	2	6	248	0.00	29.818 
20:15	64.2	64.2	64.2	84	59.3	2	6	248	0.00	29.823 
20:20	64.2	64.2	64.2	84	59.3	2	6	292	0.00	29.823 
20:25	64.2	64.2	64.2	84	59.3	2	5	270	0.00	29.823 
20:30	64.0	64.0	64.0	85	59.4	1	4	292	0.00	29.819 
20:35	63.9	63.9	63.9	85	59.3	1	4	248	0.00	29.819 
20:40	63.9	63.9	63.9	85	59.3	1	10	292	0.00	29.819 
20:45	63.7	63.7	63.7	85	59.1	2	6	270	0.00	29.822 
20:50	63.7	63.7	63.7	85	59.1	2	6	315	0.00	29.822 
20:55	63.7	63.7	63.7	86	59.4	2	7	45	0.00	29.822 
21:00	63.5	63.5	63.5	86	59.2	1	5	248	0.00	29.826 
21:05	63.5	63.5	63.5	86	59.2	1	4	248	0.00	29.826 
21:10	63.4	63.4	63.4	86	59.1	0	3	45	0.00	29.826 
21:15	63.4	63.4	63.4	87	59.5	1	5	68	0.00	29.815 
21:20	63.4	63.4	63.4	87	59.5	1	4	90	0.00	29.815 
21:25	63.4	63.4	63.4	87	59.5	1	6	90	0.00	29.815 
21:30	63.2	63.2	63.2	87	59.3	2	6	45	0.00	29.798 
21:35	63.2	63.2	63.2	87	59.3	2	6	68	0.00	29.798 
21:40	63.2	63.2	63.2	87	59.3	1	6	90	0.00	29.798 
21:45	63.2	63.2	63.2	87	59.3	1	4	135	0.00	29.784 
21:50	63.2	63.2	63.2	87	59.3	2	6	90	0.00	29.784 
21:55	63.2	63.2	63.2	88	59.6	2	6	90	0.00	29.784 
22:00	63.1	63.1	63.1	88	59.5	2	4	90	0.00	29.767 
22:05	63.1	63.1	63.1	88	59.5	1	4	112	0.00	29.767 
22:10	62.9	62.9	62.9	88	59.3	1	3	68	0.00	29.767 
22:15	62.7	62.7	62.7	88	59.1	1	3	68	0.00	29.758 
22:20	62.7	62.7	62.7	89	59.4	1	5	68	0.00	29.758 
22:25	62.6	62.6	62.6	89	59.3	1	4	112	0.00	29.758 
22:30	62.6	62.6	62.6	89	59.3	1	4	112	0.00	29.765 
22:35	62.6	62.6	62.6	89	59.3	1	5	90	0.00	29.765 
22:40	62.6	62.6	62.6	89	59.3	0	3	292	0.00	29.765 
22:45	62.6	62.6	62.6	89	59.3	1	3	292	0.00	29.784 
22:50	62.4	62.4	62.4	90	59.4	1	3	248	0.00	29.784 
22:55	62.4	62.4	62.4	90	59.4	0	4	68	0.00	29.784 
23:00	62.4	62.4	62.4	90	59.4	1	5	45	0.00	29.766 
23:05	62.4	62.4	62.4	90	59.4	1	3	112	0.00	29.766 
23:10	62.4	62.4	62.4	90	59.4	0	2	112	0.00	29.766 
23:15	62.4	62.4	62.4	90	59.4	0	3	315	0.00	29.772 
23:20	62.7	62.7	62.7	91	60.0	2	5	292	0.00	29.772 
23:25	62.9	62.9	62.9	90	59.9	1	3	292	0.00	29.772 
23:30	63.1	63.1	63.1	89	59.8	1	3	315	0.00	29.767 
23:35	63.4	63.4	63.4	89	60.1	1	5	248	0.00	29.767 
23:40	63.5	63.5	63.5	88	59.9	2	6	292	0.00	29.767 
23:45	64.0	64.0	64.0	88	60.4	2	7	248	0.00	29.765 
23:50	64.7	64.7	64.7	86	60.4	3	11	270	0.00	29.765 
23:55	65.3	65.3	65.3	84	60.3	3	8	270	0.00	29.765 

CoCoRaHS
IN-AL-39
A2 Web Hosting
Creative Commons License
GoDaddy
search engine by freefind advanced

loaded 2018-11-15 18:14:58 • last modified 2010-11-18 10:43:29
Privacy PolicyDisclaimer
• wx.awcolley.com is powered by PmWiki v.2002016 •
• all content (unless otherwise noted) © 2018 A W Colley